createdAt,value
2023-03-16T00:01:05.678Z,67.50
2023-03-16T00:03:37.743Z,68.10
2023-03-16T00:06:06.388Z,68.40
2023-03-16T00:08:48.283Z,68.00
2023-03-16T00:11:34.509Z,69.00
2023-03-16T00:14:04.310Z,67.40
2023-03-16T00:16:45.637Z,67.40
2023-03-16T00:19:19.200Z,67.00
2023-03-16T00:22:01.637Z,68.80
2023-03-16T00:24:35.806Z,68.10
2023-03-16T00:27:06.136Z,68.60
2023-03-16T00:29:36.090Z,68.00
2023-03-16T00:32:03.541Z,68.10
2023-03-16T00:34:34.906Z,70.10
2023-03-16T00:37:04.537Z,69.60
2023-03-16T00:39:35.660Z,69.10
2023-03-16T00:42:03.256Z,70.30
2023-03-16T00:47:14.694Z,69.80
2023-03-16T00:49:46.273Z,69.50
2023-03-16T00:52:14.942Z,70.60
2023-03-16T00:54:43.866Z,71.10
2023-03-16T00:57:13.805Z,70.60
2023-03-16T00:59:41.320Z,69.70
2023-03-16T01:02:09.431Z,69.70
2023-03-16T01:04:37.647Z,69.20
2023-03-16T01:07:06.007Z,68.90
2023-03-16T01:09:37.134Z,69.20
2023-03-16T01:12:10.312Z,69.60
2023-03-16T01:14:38.262Z,70.00
2023-03-16T01:17:08.692Z,69.70
2023-03-16T01:19:37.993Z,70.30
2023-03-16T01:22:06.383Z,70.70
2023-03-16T01:24:38.699Z,70.70
2023-03-16T01:27:06.039Z,71.00
2023-03-16T01:29:33.365Z,70.30
2023-03-16T01:32:01.648Z,69.80
2023-03-16T01:34:28.801Z,70.00
2023-03-16T01:37:05.164Z,69.60
2023-03-16T01:39:35.752Z,69.30
2023-03-16T01:42:11.010Z,69.10
2023-03-16T01:45:01.765Z,69.20
2023-03-16T01:47:28.919Z,68.80
2023-03-16T01:49:57.773Z,68.70
2023-03-16T01:52:30.551Z,69.00
2023-03-16T01:55:03.459Z,69.20
2023-03-16T01:57:37.076Z,68.70
2023-03-16T02:00:10.998Z,69.30
2023-03-16T02:02:43.733Z,69.10
2023-03-16T02:05:31.693Z,69.50
2023-03-16T02:08:00.833Z,69.00
2023-03-16T02:10:29.668Z,69.70
2023-03-16T02:12:59.215Z,68.80
2023-03-16T02:15:27.453Z,69.50
2023-03-16T02:17:57.772Z,69.40
2023-03-16T02:20:42.662Z,69.90
2023-03-16T02:23:19.736Z,69.30
2023-03-16T02:25:49.629Z,70.00
2023-03-16T02:28:29.793Z,69.50
2023-03-16T02:30:57.453Z,70.20
2023-03-16T02:33:26.131Z,69.80
2023-03-16T02:35:53.273Z,70.50
2023-03-16T02:38:20.913Z,70.70
2023-03-16T02:40:58.851Z,70.30
2023-03-16T02:43:33.417Z,71.30
2023-03-16T02:46:05.311Z,71.70
2023-03-16T02:48:40.490Z,70.90
2023-03-16T02:51:07.582Z,71.70
2023-03-16T02:53:35.043Z,70.90
2023-03-16T02:56:04.915Z,70.30
2023-03-16T02:58:32.467Z,70.10
2023-03-16T03:00:59.732Z,70.70
2023-03-16T03:03:27.154Z,70.20
2023-03-16T03:05:54.468Z,70.50
2023-03-16T03:08:22.929Z,70.20
2023-03-16T03:10:50.214Z,70.50
2023-03-16T03:13:17.981Z,70.10
2023-03-16T03:15:45.497Z,69.80
2023-03-16T03:18:12.636Z,69.70
2023-03-16T03:20:39.734Z,70.50
2023-03-16T03:23:06.829Z,69.80
2023-03-16T03:25:36.691Z,69.80
2023-03-16T03:28:05.696Z,69.90
2023-03-16T03:30:32.977Z,69.60
2023-03-16T03:33:00.150Z,69.60
2023-03-16T03:35:27.742Z,70.40
2023-03-16T03:37:54.915Z,71.80
2023-03-16T03:40:22.004Z,70.60
2023-03-16T03:42:49.133Z,70.20
2023-03-16T03:45:17.437Z,71.40
2023-03-16T03:47:44.989Z,70.50
2023-03-16T03:50:17.885Z,70.50
2023-03-16T03:52:44.926Z,71.20
2023-03-16T03:55:12.295Z,70.50
2023-03-16T03:57:39.550Z,70.00
2023-03-16T04:00:09.825Z,69.80
2023-03-16T04:02:38.664Z,69.70
2023-03-16T04:05:08.468Z,69.60
2023-03-16T04:07:35.590Z,69.70
2023-03-16T04:10:02.715Z,70.00
2023-03-16T04:12:29.785Z,69.90
2023-03-16T04:14:58.201Z,70.10
2023-03-16T04:17:25.297Z,70.30
2023-03-16T04:19:52.489Z,70.60
2023-03-16T04:22:19.569Z,70.40
2023-03-16T04:24:46.841Z,71.30
2023-03-16T04:27:14.040Z,71.30
2023-03-16T04:29:41.165Z,71.70
2023-03-16T04:32:08.268Z,71.80
2023-03-16T04:34:36.024Z,72.30
2023-03-16T04:37:03.114Z,73.00
2023-03-16T04:39:30.223Z,73.60
2023-03-16T04:41:57.293Z,73.20
2023-03-16T04:44:26.215Z,72.40
2023-03-16T04:46:55.797Z,72.50
2023-03-16T04:49:22.859Z,72.40
2023-03-16T04:51:50.365Z,72.30
2023-03-16T04:54:17.423Z,72.30
2023-03-16T04:56:44.536Z,73.00
2023-03-16T04:59:13.457Z,74.20
2023-03-16T05:01:40.613Z,74.30
2023-03-16T05:04:07.818Z,74.10
2023-03-16T05:06:34.923Z,74.80
2023-03-16T05:09:02.194Z,74.20
2023-03-16T05:11:29.282Z,74.30
2023-03-16T05:13:56.365Z,74.10
2023-03-16T05:16:23.564Z,75.10
2023-03-16T05:18:52.926Z,75.80
2023-03-16T05:21:20.645Z,75.50
2023-03-16T05:23:47.731Z,76.00
2023-03-16T05:26:14.839Z,76.50
2023-03-16T05:28:42.675Z,76.40
2023-03-16T05:31:10.320Z,76.40
2023-03-16T05:33:38.832Z,76.10
2023-03-16T05:36:06.325Z,77.00
2023-03-16T05:38:33.540Z,76.60
2023-03-16T05:41:06.546Z,76.50
2023-03-16T05:43:34.430Z,76.10
2023-03-16T05:46:01.562Z,76.30
2023-03-16T05:48:28.657Z,76.50
2023-03-16T05:50:55.833Z,76.40
2023-03-16T05:53:28.846Z,76.10
2023-03-16T05:55:56.003Z,76.00
2023-03-16T05:58:23.353Z,76.00
2023-03-16T06:00:50.729Z,75.80
2023-03-16T06:03:18.048Z,75.40
2023-03-16T06:05:46.371Z,74.90
2023-03-16T06:08:13.495Z,74.70
2023-03-16T06:10:40.835Z,74.30
2023-03-16T06:13:07.998Z,74.30
2023-03-16T06:15:35.165Z,73.90
2023-03-16T06:18:02.314Z,73.60
2023-03-16T06:20:29.900Z,73.40
2023-03-16T06:22:57.097Z,73.50
2023-03-16T06:25:24.271Z,72.90
2023-03-16T06:27:51.388Z,72.80
2023-03-16T06:30:19.802Z,72.10
2023-03-16T06:32:49.663Z,72.20
2023-03-16T06:35:17.630Z,72.30
2023-03-16T06:37:44.816Z,72.20
2023-03-16T06:40:13.450Z,72.10
2023-03-16T06:42:40.597Z,71.90
2023-03-16T06:45:08.396Z,71.80
2023-03-16T06:47:37.893Z,71.70
2023-03-16T06:50:05.858Z,71.20
2023-03-16T06:52:32.965Z,71.40
2023-03-16T06:55:00.451Z,71.60
2023-03-16T06:57:27.864Z,71.10
2023-03-16T06:59:55.085Z,70.60
2023-03-16T07:02:23.660Z,70.10
2023-03-16T07:04:50.870Z,70.00
2023-03-16T07:07:19.367Z,70.20
2023-03-16T07:09:46.444Z,69.70
2023-03-16T07:12:14.693Z,69.50
2023-03-16T07:14:42.167Z,68.50
2023-03-16T07:17:09.383Z,68.90
2023-03-16T07:19:36.570Z,68.10
2023-03-16T07:22:03.690Z,67.00
2023-03-16T07:24:32.781Z,66.90
2023-03-16T07:27:00.102Z,66.10
2023-03-16T07:29:27.428Z,66.30
2023-03-16T07:31:55.179Z,66.30
2023-03-16T07:34:22.410Z,65.80
2023-03-16T07:36:49.691Z,65.00
2023-03-16T07:39:17.823Z,64.60
2023-03-16T07:41:44.990Z,64.20
2023-03-16T07:44:12.095Z,64.90
2023-03-16T07:46:39.169Z,63.80
2023-03-16T07:49:06.287Z,64.70
2023-03-16T07:51:33.859Z,63.20
2023-03-16T07:54:00.934Z,63.20
2023-03-16T07:56:33.702Z,62.80
2023-03-16T07:59:09.592Z,62.90
2023-03-16T08:01:36.736Z,63.10
2023-03-16T08:04:04.160Z,63.10
2023-03-16T08:06:31.329Z,63.20
2023-03-16T08:08:59.220Z,63.50
2023-03-16T08:11:26.328Z,63.20
2023-03-16T08:13:56.776Z,63.00
2023-03-16T08:16:25.201Z,62.50
2023-03-16T08:18:53.010Z,62.70
2023-03-16T08:21:20.275Z,62.00
2023-03-16T08:23:50.592Z,61.30
2023-03-16T08:26:22.377Z,61.20
2023-03-16T08:28:52.128Z,61.30
2023-03-16T08:31:20.960Z,60.90
2023-03-16T08:33:49.849Z,60.30
2023-03-16T08:36:18.523Z,60.80
2023-03-16T08:39:03.864Z,59.80
2023-03-16T08:41:34.771Z,60.70
2023-03-16T08:44:03.338Z,60.30
2023-03-16T08:46:31.097Z,59.60
2023-03-16T08:48:58.420Z,59.40
2023-03-16T08:51:25.972Z,59.50
2023-03-16T08:53:55.589Z,58.60
2023-03-16T08:56:22.671Z,58.90
2023-03-16T08:58:51.557Z,58.50
2023-03-16T09:01:21.125Z,58.60
2023-03-16T09:03:48.323Z,59.20
2023-03-16T09:06:17.180Z,58.70
2023-03-16T09:08:46.640Z,58.60
2023-03-16T09:11:16.065Z,58.10
2023-03-16T09:13:45.732Z,58.10
2023-03-16T09:16:15.884Z,57.80
2023-03-16T09:18:43.416Z,58.20
2023-03-16T09:21:13.366Z,57.70
2023-03-16T09:23:42.833Z,57.20
2023-03-16T09:26:10.623Z,56.00
2023-03-16T09:28:39.076Z,56.30
2023-03-16T09:31:08.169Z,56.10
2023-03-16T09:33:36.203Z,56.00
2023-03-16T09:36:03.798Z,55.10
2023-03-16T09:38:32.288Z,54.40
2023-03-16T09:41:08.946Z,54.80
2023-03-16T09:43:48.805Z,53.40
2023-03-16T09:46:33.911Z,54.10
2023-03-16T09:49:03.837Z,53.10
2023-03-16T09:51:45.682Z,53.30
2023-03-16T09:54:26.647Z,53.30
2023-03-16T09:56:55.628Z,52.30
2023-03-16T09:59:22.816Z,52.30
2023-03-16T10:02:25.576Z,50.80
2023-03-16T10:05:08.068Z,51.80
2023-03-16T10:07:41.640Z,49.80
2023-03-16T10:10:20.051Z,50.30
2023-03-16T10:12:52.747Z,49.70
2023-03-16T10:15:27.206Z,46.60
2023-03-16T10:18:17.480Z,45.60
2023-03-16T10:20:46.818Z,48.20
2023-03-16T10:23:25.539Z,42.70
2023-03-16T10:25:56.803Z,42.70
2023-03-16T10:28:26.525Z,44.30
2023-03-16T10:30:56.014Z,42.30
2023-03-16T10:33:29.724Z,44.00
2023-03-16T10:36:29.052Z,44.20
2023-03-16T10:39:04.416Z,44.00
2023-03-16T10:41:37.317Z,42.80
2023-03-16T10:44:14.816Z,42.80
2023-03-16T10:46:51.152Z,42.00
2023-03-16T10:49:28.761Z,42.00
2023-03-16T10:51:59.620Z,42.30
2023-03-16T10:54:33.599Z,41.10
2023-03-16T10:57:13.437Z,40.60
2023-03-16T10:59:40.632Z,42.10
2023-03-16T11:02:20.812Z,42.30
2023-03-16T11:04:48.317Z,41.40
2023-03-16T11:07:18.286Z,41.00
2023-03-16T11:09:47.852Z,40.60
2023-03-16T11:12:15.573Z,38.80
2023-03-16T11:14:46.734Z,38.70
2023-03-16T11:17:21.464Z,38.80
2023-03-16T11:19:57.708Z,39.60
2023-03-16T11:22:26.340Z,39.50
2023-03-16T11:25:14.242Z,38.40
2023-03-16T11:28:08.509Z,38.30
2023-03-16T11:30:47.630Z,38.40
2023-03-16T11:33:15.767Z,38.60
2023-03-16T11:36:12.626Z,38.20
2023-03-16T11:38:46.282Z,37.60
2023-03-16T11:41:26.806Z,38.10
2023-03-16T11:44:01.564Z,38.20
2023-03-16T11:46:39.662Z,39.10
2023-03-16T11:49:31.810Z,38.90
2023-03-16T11:52:24.743Z,39.10
2023-03-16T11:55:02.423Z,37.40
2023-03-16T11:57:44.652Z,35.30
2023-03-16T12:00:20.435Z,36.20
2023-03-16T12:02:56.531Z,36.00
2023-03-16T12:05:36.619Z,36.70
2023-03-16T12:08:10.058Z,36.90
2023-03-16T12:10:49.763Z,37.30
2023-03-16T12:13:41.947Z,36.70
2023-03-16T12:16:48.997Z,37.80
2023-03-16T12:19:43.675Z,36.50
2023-03-16T12:22:18.622Z,36.10
2023-03-16T12:24:49.593Z,36.00
2023-03-16T12:27:24.979Z,35.60
2023-03-16T12:30:13.348Z,35.20
2023-03-16T12:32:44.741Z,36.20
2023-03-16T12:35:45.198Z,36.50
2023-03-16T12:38:43.483Z,37.00
2023-03-16T12:41:29.496Z,37.30
2023-03-16T12:44:27.134Z,36.40
2023-03-16T12:47:12.419Z,35.40
2023-03-16T12:49:40.232Z,36.20
2023-03-16T12:52:11.452Z,35.20
2023-03-16T12:54:52.988Z,34.90
2023-03-16T12:57:24.429Z,35.10
2023-03-16T12:59:58.416Z,35.10
2023-03-16T13:02:35.007Z,35.40
2023-03-16T13:05:12.970Z,35.60
2023-03-16T13:07:52.783Z,35.60
2023-03-16T13:10:22.976Z,35.70
2023-03-16T13:12:51.673Z,35.40
2023-03-16T13:15:22.836Z,35.20
2023-03-16T13:18:03.523Z,35.80
2023-03-16T13:21:01.845Z,34.20
2023-03-16T13:24:23.116Z,34.60
2023-03-16T13:26:53.895Z,32.50
2023-03-16T13:29:32.212Z,33.30
2023-03-16T13:32:02.549Z,33.80
2023-03-16T13:34:32.421Z,33.90
2023-03-16T13:37:01.667Z,33.40
2023-03-16T13:39:31.550Z,34.00
2023-03-16T13:42:18.776Z,33.40
2023-03-16T13:44:46.121Z,33.50
2023-03-16T13:47:20.091Z,33.70
2023-03-16T13:49:55.127Z,34.00
2023-03-16T13:52:34.442Z,34.80
2023-03-16T13:55:06.336Z,34.90
2023-03-16T13:57:39.313Z,35.10
2023-03-16T14:00:24.844Z,34.20
2023-03-16T14:02:57.880Z,34.70
2023-03-16T14:05:27.873Z,35.70
2023-03-16T14:07:56.851Z,33.70
2023-03-16T14:10:29.769Z,34.10
2023-03-16T14:13:06.473Z,33.70
2023-03-16T14:15:34.408Z,34.10
2023-03-16T14:18:21.583Z,33.70
2023-03-16T14:20:56.338Z,34.10
2023-03-16T14:23:31.208Z,34.10
2023-03-16T14:25:58.432Z,33.90
2023-03-16T14:28:32.459Z,34.30
2023-03-16T14:31:06.577Z,34.40
2023-03-16T14:33:37.837Z,34.60
2023-03-16T14:36:15.167Z,34.30
2023-03-16T14:38:44.171Z,34.90
2023-03-16T14:41:31.126Z,35.10
2023-03-16T14:44:00.667Z,35.20
2023-03-16T14:46:31.293Z,34.40
2023-03-16T14:49:16.451Z,34.90
2023-03-16T14:51:46.184Z,34.30
2023-03-16T14:54:16.924Z,34.20
2023-03-16T14:56:52.308Z,34.80
2023-03-16T14:59:20.415Z,34.60
2023-03-16T15:01:49.898Z,35.50
2023-03-16T15:04:22.700Z,35.90
2023-03-16T15:06:50.061Z,36.20
2023-03-16T15:09:34.488Z,35.50
2023-03-16T15:12:03.277Z,35.30
2023-03-16T15:14:49.584Z,35.90
2023-03-16T15:17:16.846Z,35.60
2023-03-16T15:19:44.026Z,36.20
2023-03-16T15:22:13.136Z,36.10
2023-03-16T15:24:40.392Z,36.00
2023-03-16T15:27:20.416Z,36.00
2023-03-16T15:29:47.577Z,35.70
2023-03-16T15:32:16.334Z,35.20
2023-03-16T15:34:46.528Z,35.50
2023-03-16T15:37:18.658Z,36.00
2023-03-16T15:39:47.396Z,36.20
2023-03-16T15:42:19.274Z,36.10
2023-03-16T15:44:47.112Z,36.00
2023-03-16T15:47:14.679Z,36.40
2023-03-16T15:49:47.786Z,36.30
2023-03-16T15:52:33.667Z,36.20
2023-03-16T15:55:04.628Z,36.30
2023-03-16T15:57:32.249Z,36.60
2023-03-16T16:00:00.351Z,36.70
2023-03-16T16:02:32.365Z,36.70
2023-03-16T16:04:59.884Z,36.70
2023-03-16T16:07:27.708Z,36.80
2023-03-16T16:09:54.852Z,36.70
2023-03-16T16:12:26.973Z,37.00
2023-03-16T16:14:56.765Z,36.80
2023-03-16T16:17:36.514Z,37.00
2023-03-16T16:20:17.493Z,37.00
2023-03-16T16:22:45.121Z,37.10
2023-03-16T16:25:15.679Z,37.20
2023-03-16T16:27:43.005Z,37.40
2023-03-16T16:30:26.711Z,36.80
2023-03-16T16:32:55.837Z,36.90
2023-03-16T16:35:28.011Z,37.10
2023-03-16T16:37:55.379Z,37.20
2023-03-16T16:40:25.902Z,37.30
2023-03-16T16:42:54.275Z,37.50
2023-03-16T16:45:25.318Z,37.70
2023-03-16T16:47:56.697Z,37.80
2023-03-16T16:50:27.670Z,38.10
2023-03-16T16:52:55.589Z,38.10
2023-03-16T16:55:24.570Z,38.30
2023-03-16T16:57:54.840Z,38.40
2023-03-16T17:00:28.165Z,38.50
2023-03-16T17:02:57.742Z,38.70
2023-03-16T17:05:28.305Z,39.00
2023-03-16T17:07:55.553Z,39.40
2023-03-16T17:10:26.050Z,39.70
2023-03-16T17:12:59.288Z,39.60
2023-03-16T17:15:29.864Z,39.90
2023-03-16T17:18:07.298Z,40.00
2023-03-16T17:20:34.490Z,40.70
2023-03-16T17:23:01.964Z,40.20
2023-03-16T17:25:30.477Z,40.30
2023-03-16T17:27:58.075Z,41.10
2023-03-16T17:30:30.336Z,40.80
2023-03-16T17:33:07.453Z,41.40
2023-03-16T17:35:40.768Z,41.80
2023-03-16T17:38:19.852Z,41.10
2023-03-16T17:40:47.266Z,41.00
2023-03-16T17:43:19.824Z,41.20
2023-03-16T17:45:51.562Z,41.30
2023-03-16T17:48:24.658Z,41.10
2023-03-16T17:50:57.720Z,41.60
2023-03-16T17:53:24.808Z,41.30
2023-03-16T17:55:52.551Z,41.40
2023-03-16T17:58:32.388Z,41.70
2023-03-16T18:01:00.263Z,42.10
2023-03-16T18:03:30.393Z,41.80
2023-03-16T18:05:57.965Z,42.00
2023-03-16T18:08:27.461Z,41.70
2023-03-16T18:11:07.695Z,41.80
2023-03-16T18:13:38.017Z,42.10
2023-03-16T18:16:07.240Z,43.30
2023-03-16T18:18:38.320Z,42.60
2023-03-16T18:21:05.761Z,43.90
2023-03-16T18:23:37.008Z,43.10
2023-03-16T18:26:04.357Z,42.60
2023-03-16T18:28:32.203Z,42.90
2023-03-16T18:31:00.211Z,42.70
2023-03-16T18:33:41.123Z,43.10
2023-03-16T18:36:20.041Z,43.00
2023-03-16T18:38:50.491Z,43.60
2023-03-16T18:41:25.214Z,44.90
2023-03-16T18:44:28.010Z,43.60
2023-03-16T18:47:19.040Z,43.50
2023-03-16T18:49:49.365Z,43.50
2023-03-16T18:52:20.854Z,43.70
2023-03-16T18:55:17.445Z,44.70
2023-03-16T18:58:08.734Z,44.10
2023-03-16T19:00:47.641Z,44.00
2023-03-16T19:03:46.534Z,44.50
2023-03-16T19:06:39.220Z,44.60
2023-03-16T19:09:19.320Z,44.30
2023-03-16T19:11:49.592Z,44.40
2023-03-16T19:14:23.672Z,44.50
2023-03-16T19:16:52.069Z,46.30
2023-03-16T19:19:23.436Z,45.50
2023-03-16T19:21:53.819Z,46.70
2023-03-16T19:24:29.937Z,45.10
2023-03-16T19:26:57.581Z,45.00
2023-03-16T19:29:34.709Z,45.00
2023-03-16T19:32:02.053Z,45.00
2023-03-16T19:34:29.399Z,44.80
2023-03-16T19:36:56.611Z,45.00
2023-03-16T19:39:23.743Z,45.40
2023-03-16T19:41:57.225Z,45.20
2023-03-16T19:44:27.338Z,45.30
2023-03-16T19:46:55.180Z,45.10
2023-03-16T19:49:25.981Z,45.50
2023-03-16T19:51:55.152Z,45.40
2023-03-16T19:54:25.944Z,46.70
2023-03-16T19:56:55.193Z,46.10
2023-03-16T19:59:24.488Z,45.70
2023-03-16T20:01:54.773Z,45.60
2023-03-16T20:04:26.478Z,45.80
2023-03-16T20:06:56.979Z,45.60
2023-03-16T20:09:24.490Z,45.60
2023-03-16T20:11:54.355Z,46.30
2023-03-16T20:14:32.339Z,45.80
2023-03-16T20:17:00.341Z,45.90
2023-03-16T20:19:28.058Z,45.90
2023-03-16T20:21:59.653Z,45.90
2023-03-16T20:24:29.732Z,45.80
2023-03-16T20:26:59.772Z,46.30
2023-03-16T20:29:33.620Z,46.20
2023-03-16T20:32:01.384Z,46.30
2023-03-16T20:34:32.675Z,46.10
2023-03-16T20:37:02.819Z,46.30
2023-03-16T20:39:33.149Z,47.20
2023-03-16T20:42:00.334Z,46.30
2023-03-16T20:44:32.540Z,46.30
2023-03-16T20:47:02.604Z,46.30
2023-03-16T20:49:32.448Z,46.30
2023-03-16T20:52:02.447Z,46.50
2023-03-16T20:54:29.555Z,48.20
2023-03-16T20:57:00.885Z,46.60
2023-03-16T20:59:31.307Z,46.60
2023-03-16T21:01:58.557Z,46.90
2023-03-16T21:04:27.904Z,46.80
2023-03-16T21:06:56.085Z,46.70
2023-03-16T21:09:23.252Z,46.50
2023-03-16T21:11:50.483Z,46.80
2023-03-16T21:14:22.434Z,46.70
2023-03-16T21:16:53.070Z,46.70
2023-03-16T21:19:22.902Z,46.70
2023-03-16T21:21:50.345Z,46.70
2023-03-16T21:24:17.462Z,47.40
2023-03-16T21:26:45.390Z,47.60
2023-03-16T21:29:26.850Z,47.50
2023-03-16T21:32:04.401Z,47.80
2023-03-16T21:34:35.787Z,47.10
2023-03-16T21:37:02.852Z,47.30
2023-03-16T21:39:32.120Z,47.40
2023-03-16T21:41:59.273Z,47.10
2023-03-16T21:44:27.756Z,47.10
2023-03-16T21:46:54.934Z,47.30
2023-03-16T21:49:22.083Z,47.90
2023-03-16T21:51:50.728Z,48.40
2023-03-16T21:54:19.291Z,48.20
2023-03-16T21:56:47.945Z,47.80
2023-03-16T21:59:15.617Z,48.40
2023-03-16T22:01:58.709Z,49.40
2023-03-16T22:04:28.795Z,48.40
2023-03-16T22:06:55.944Z,48.10
2023-03-16T22:09:24.976Z,48.00
2023-03-16T22:11:52.108Z,48.10
2023-03-16T22:14:19.570Z,48.00
2023-03-16T22:16:46.672Z,49.10
2023-03-16T22:19:14.751Z,48.70
2023-03-16T22:21:43.745Z,48.30
2023-03-16T22:24:20.434Z,48.30
2023-03-16T22:26:49.038Z,48.70
2023-03-16T22:29:26.578Z,48.70
2023-03-16T22:32:01.410Z,48.40
2023-03-16T22:34:32.786Z,48.50
2023-03-16T22:37:04.054Z,48.80
2023-03-16T22:39:38.654Z,49.30
2023-03-16T22:42:33.633Z,48.80
2023-03-16T22:45:01.112Z,48.90
2023-03-16T22:47:32.983Z,48.80
2023-03-16T22:50:00.121Z,49.30
2023-03-16T22:52:33.577Z,49.90
2023-03-16T22:55:03.538Z,49.30
2023-03-16T22:57:31.530Z,50.00
2023-03-16T23:00:00.719Z,49.20
2023-03-16T23:02:28.967Z,49.10
2023-03-16T23:04:56.236Z,49.50
2023-03-16T23:07:23.511Z,49.80
2023-03-16T23:09:50.598Z,49.90
2023-03-16T23:12:21.328Z,50.60
2023-03-16T23:14:48.772Z,50.20
2023-03-16T23:17:18.768Z,50.20
2023-03-16T23:19:48.006Z,50.00
2023-03-16T23:22:15.924Z,49.80
2023-03-16T23:24:43.287Z,50.00
2023-03-16T23:27:17.644Z,50.40
2023-03-16T23:29:44.912Z,51.00
2023-03-16T23:32:12.088Z,52.20
2023-03-16T23:34:39.228Z,51.50
2023-03-16T23:37:06.849Z,51.80
2023-03-16T23:39:33.894Z,50.40
2023-03-16T23:42:02.398Z,50.40
2023-03-16T23:44:30.627Z,50.00
2023-03-16T23:46:59.903Z,50.00
2023-03-16T23:49:32.742Z,50.20
2023-03-16T23:52:01.700Z,50.70
2023-03-16T23:54:31.281Z,50.00
2023-03-16T23:56:58.831Z,50.00
2023-03-16T23:59:27.886Z,50.00
